createdAt,value
2017-08-11T01:08:38.780Z,15.68
2017-08-11T01:11:44.508Z,15.95
2017-08-11T01:14:59.482Z,15.73
2017-08-11T01:18:03.272Z,14.15
2017-08-11T02:06:03.277Z,12.23
2017-08-11T02:09:07.055Z,8.73
2017-08-11T02:22:34.883Z,12.95
2017-08-11T02:25:38.672Z,11.73
2017-08-11T02:42:25.321Z,11.20
2017-08-11T03:09:50.012Z,9.82
2017-08-11T03:12:53.797Z,13.57
2017-08-11T03:19:32.476Z,9.55
2017-08-11T03:22:36.254Z,11.48
2017-08-11T03:25:50.651Z,9.02
2017-08-11T03:28:54.360Z,10.48
2017-08-11T03:45:57.255Z,11.93
2017-08-11T03:49:20.612Z,13.77
2017-08-11T03:52:27.948Z,13.80
2017-08-11T03:55:32.052Z,12.70
2017-08-11T03:58:35.835Z,12.45
2017-08-11T04:01:49.067Z,14.02
2017-08-11T04:04:52.853Z,12.30
2017-08-11T04:14:48.162Z,12.35
2017-08-11T04:17:51.883Z,12.85
2017-08-11T04:24:43.583Z,12.25
2017-08-11T04:27:59.480Z,13.90
2017-08-11T04:31:03.202Z,12.13
2017-08-11T04:34:23.873Z,16.30
2017-08-11T04:37:27.670Z,14.87
2017-08-11T04:40:48.628Z,15.27
2017-08-11T04:47:37.224Z,14.50
2017-08-11T04:51:00.009Z,13.05
2017-08-11T04:54:03.715Z,11.63
2017-08-11T04:57:13.278Z,12.00
2017-08-11T05:00:17.063Z,11.38
2017-08-11T05:03:32.542Z,11.68
2017-08-11T05:06:36.326Z,11.30
2017-08-11T05:13:23.392Z,11.48
2017-08-11T05:16:27.146Z,9.70
2017-08-11T05:23:09.953Z,11.02
2017-08-11T06:25:16.102Z,8.85
2017-08-11T06:28:31.273Z,7.70
2017-08-11T06:31:36.562Z,7.10
2017-08-11T06:34:54.523Z,7.22
2017-08-11T06:37:58.333Z,6.95
2017-08-11T06:41:03.111Z,7.50
2017-08-11T06:44:06.926Z,7.68
2017-08-11T06:54:14.510Z,8.38
2017-08-11T06:57:18.374Z,7.55
2017-08-11T07:00:22.199Z,7.60
2017-08-11T07:17:37.326Z,5.28
2017-08-11T07:20:42.184Z,6.25
2017-08-11T07:23:45.868Z,5.87
2017-08-11T07:27:04.706Z,5.40
2017-08-11T07:30:08.382Z,5.85
2017-08-11T07:33:12.180Z,6.20
2017-08-11T07:46:39.896Z,5.85
2017-08-11T07:49:43.697Z,5.60
2017-08-11T07:52:51.124Z,5.20
2017-08-11T07:55:54.913Z,5.80
2017-08-11T07:59:14.921Z,5.70
2017-08-11T08:05:46.983Z,5.78
2017-08-11T08:08:50.858Z,6.00
2017-08-11T08:11:54.689Z,5.53
2017-08-11T08:14:58.454Z,5.35
2017-08-11T08:18:02.228Z,5.53
2017-08-11T08:21:06.094Z,5.18
2017-08-11T08:24:09.789Z,6.12
2017-08-11T08:27:13.644Z,5.43
2017-08-11T08:30:17.509Z,5.00
2017-08-11T08:33:21.181Z,5.15
2017-08-11T08:36:25.009Z,5.35
2017-08-11T08:39:28.744Z,6.05
2017-08-11T08:42:32.610Z,5.35
2017-08-11T08:45:36.406Z,5.07
2017-08-11T08:48:40.403Z,4.65
2017-08-11T08:51:44.089Z,5.32
2017-08-11T08:54:47.929Z,5.57
2017-08-11T08:57:51.714Z,5.75
2017-08-11T09:00:55.467Z,4.53
2017-08-11T09:03:59.246Z,5.18
2017-08-11T09:07:03.082Z,4.95
2017-08-11T09:10:08.954Z,4.95
2017-08-11T09:13:13.118Z,7.12
2017-08-11T09:16:16.887Z,5.10
2017-08-11T09:19:20.694Z,5.70
2017-08-11T09:22:24.463Z,5.00
2017-08-11T09:25:39.495Z,5.90
2017-08-11T09:28:54.466Z,5.32
2017-08-11T09:32:09.335Z,6.70
2017-08-11T09:35:24.194Z,5.60
2017-08-11T09:38:28.023Z,5.32
2017-08-11T09:41:31.754Z,4.60
2017-08-11T09:44:35.549Z,5.40
2017-08-11T09:47:39.222Z,5.82
2017-08-11T09:50:43.070Z,5.40
2017-08-11T09:53:46.934Z,5.90
2017-08-11T09:56:50.802Z,6.45
2017-08-11T09:59:54.482Z,5.75
2017-08-11T10:02:58.317Z,5.50
2017-08-11T10:06:02.127Z,5.82
2017-08-11T10:09:05.825Z,4.93
2017-08-11T10:12:09.619Z,4.93
2017-08-11T10:15:13.537Z,4.87
2017-08-11T10:18:17.326Z,5.22
2017-08-11T10:21:21.046Z,6.35
2017-08-11T10:24:24.838Z,4.60
2017-08-11T10:27:28.668Z,5.22
2017-08-11T10:30:32.491Z,5.50
2017-08-11T10:33:36.172Z,6.53
2017-08-11T10:36:40.142Z,5.40
2017-08-11T10:39:43.917Z,4.57
2017-08-11T10:42:47.689Z,5.03
2017-08-11T10:45:51.471Z,5.47
2017-08-11T10:48:55.419Z,5.25
2017-08-11T10:52:00.730Z,5.43
2017-08-11T10:55:04.530Z,6.65
2017-08-11T10:58:08.370Z,6.40
2017-08-11T11:01:12.152Z,6.00
2017-08-11T11:04:15.966Z,5.50
2017-08-11T11:07:19.762Z,5.57
2017-08-11T11:10:23.611Z,5.47
2017-08-11T11:13:27.316Z,5.40
2017-08-11T11:16:31.102Z,5.30
2017-08-11T11:19:35.123Z,5.75
2017-08-11T11:22:38.811Z,5.78
2017-08-11T11:25:42.626Z,5.60
2017-08-11T11:28:46.405Z,5.37
2017-08-11T11:31:50.085Z,6.22
2017-08-11T11:34:53.965Z,4.60
2017-08-11T11:37:57.658Z,5.65
2017-08-11T11:41:02.359Z,5.45
2017-08-11T11:44:06.107Z,5.60
2017-08-11T11:47:09.987Z,6.90
2017-08-11T11:50:13.767Z,5.10
2017-08-11T11:53:17.510Z,5.28
2017-08-11T11:56:21.303Z,5.50
2017-08-11T11:59:25.027Z,6.43
2017-08-11T12:02:29.185Z,5.65
2017-08-11T12:05:35.286Z,6.80
2017-08-11T12:08:40.026Z,6.50
2017-08-11T12:11:43.908Z,10.32
2017-08-11T12:14:48.002Z,6.57
2017-08-11T12:17:51.849Z,8.63
2017-08-11T12:20:55.642Z,8.95
2017-08-11T12:23:59.375Z,9.02
2017-08-11T12:27:03.194Z,8.93
2017-08-11T12:30:07.019Z,10.57
2017-08-11T12:33:10.699Z,7.82
2017-08-11T12:36:14.538Z,7.05
2017-08-11T12:39:18.247Z,6.82
2017-08-11T12:42:22.005Z,7.82
2017-08-11T12:45:25.717Z,8.40
2017-08-11T12:51:57.330Z,6.25
2017-08-11T12:55:01.021Z,7.43
2017-08-11T12:58:04.838Z,7.65
2017-08-11T13:01:08.533Z,8.05
2017-08-11T13:04:12.328Z,7.00
2017-08-11T13:07:16.127Z,7.03
2017-08-11T13:10:19.956Z,8.35
2017-08-11T13:13:23.746Z,7.35
2017-08-11T13:16:27.541Z,8.20
2017-08-11T13:19:31.247Z,8.07
2017-08-11T13:22:35.043Z,7.05
2017-08-11T13:25:38.899Z,7.45
2017-08-11T13:28:43.569Z,7.55
2017-08-11T13:31:47.389Z,7.55
2017-08-11T13:34:52.051Z,8.48
2017-08-11T13:37:55.917Z,6.80
2017-08-11T13:41:00.679Z,7.30
2017-08-11T13:44:04.474Z,7.97
2017-08-11T13:47:08.171Z,7.53
2017-08-11T13:50:11.999Z,9.07
2017-08-11T13:53:15.696Z,7.75
2017-08-11T13:56:19.497Z,8.65
2017-08-11T13:59:41.304Z,7.65
2017-08-11T14:02:45.105Z,7.72
2017-08-11T14:09:17.594Z,8.07
2017-08-11T14:12:21.271Z,7.25
2017-08-11T14:15:25.039Z,7.70
2017-08-11T14:18:28.906Z,8.43
2017-08-11T14:21:32.670Z,7.25
2017-08-11T14:24:41.939Z,7.37
2017-08-11T14:27:45.623Z,8.50
2017-08-11T14:30:49.409Z,7.55
2017-08-11T14:33:53.088Z,11.55
2017-08-11T14:36:57.175Z,9.35
2017-08-11T14:40:00.957Z,8.75
2017-08-11T14:43:04.778Z,12.18
2017-08-11T14:46:08.450Z,9.35
2017-08-11T14:49:12.219Z,9.45
2017-08-11T14:52:15.880Z,9.77
2017-08-11T14:55:19.681Z,11.05
2017-08-11T14:58:23.367Z,10.30
2017-08-11T15:01:27.192Z,10.15
2017-08-11T15:04:33.232Z,10.65
2017-08-11T15:07:37.984Z,10.82
2017-08-11T15:10:42.834Z,10.20
2017-08-11T15:13:46.565Z,8.68
2017-08-11T15:16:51.358Z,9.43
2017-08-11T15:19:56.616Z,9.73
2017-08-11T15:23:00.406Z,8.65
2017-08-11T15:26:04.192Z,12.32
2017-08-11T15:29:07.920Z,9.57
2017-08-11T15:32:11.715Z,11.95
2017-08-11T15:35:15.523Z,9.82
2017-08-11T15:38:20.211Z,11.25
2017-08-11T15:41:23.957Z,8.70
2017-08-11T15:44:27.710Z,10.43
2017-08-11T15:47:31.422Z,8.60
2017-08-11T15:50:35.153Z,9.57
2017-08-11T15:53:38.865Z,8.27
2017-08-11T15:56:42.519Z,8.80
2017-08-11T15:59:46.248Z,15.48
2017-08-11T16:02:49.967Z,27.42
2017-08-11T16:05:54.688Z,9.70
2017-08-11T16:08:58.358Z,7.45
2017-08-11T16:12:02.145Z,10.38
2017-08-11T16:15:05.610Z,9.10
2017-08-11T16:18:09.362Z,9.25
2017-08-11T16:21:13.082Z,7.97
2017-08-11T16:24:16.879Z,7.95
2017-08-11T16:27:20.669Z,7.70
2017-08-11T16:30:24.530Z,9.82
2017-08-11T16:33:28.291Z,7.80
2017-08-11T16:36:32.114Z,9.25
2017-08-11T16:39:35.966Z,7.65
2017-08-11T16:42:39.633Z,7.20
2017-08-11T16:45:43.424Z,8.13
2017-08-11T16:48:47.174Z,6.78
2017-08-11T16:51:51.935Z,7.78
2017-08-11T16:54:55.719Z,7.35
2017-08-11T16:57:59.378Z,6.68
2017-08-11T17:01:03.182Z,8.55
2017-08-11T17:04:06.860Z,8.77
2017-08-11T17:07:10.611Z,7.80
2017-08-11T17:10:14.304Z,8.68
2017-08-11T17:13:18.174Z,7.95
2017-08-11T17:16:21.860Z,7.00
2017-08-11T17:19:25.663Z,8.73
2017-08-11T17:22:29.523Z,9.05
2017-08-11T17:25:33.206Z,8.40
2017-08-11T17:28:37.127Z,7.03
2017-08-11T17:31:44.263Z,8.73
2017-08-11T17:34:47.973Z,9.57
2017-08-11T17:37:55.662Z,15.70
2017-08-11T17:40:59.455Z,11.18
2017-08-11T17:44:03.230Z,9.07
2017-08-11T17:47:16.486Z,9.13
2017-08-11T17:50:20.838Z,10.68
2017-08-11T17:53:24.658Z,9.45
2017-08-11T17:56:28.410Z,8.07
2017-08-11T17:59:32.216Z,9.32
2017-08-11T18:02:35.890Z,7.40
2017-08-11T18:05:39.663Z,7.85
2017-08-11T18:08:43.432Z,8.80
2017-08-11T18:11:47.111Z,8.10
2017-08-11T18:14:50.859Z,7.28
2017-08-11T18:17:54.536Z,7.07
2017-08-11T18:20:58.278Z,8.43
2017-08-11T18:24:01.946Z,9.00
2017-08-11T18:27:05.784Z,9.95
2017-08-11T18:30:09.492Z,9.30
2017-08-11T18:33:13.262Z,10.73
2017-08-11T18:36:16.943Z,8.35
2017-08-11T18:39:20.520Z,10.48
2017-08-11T18:42:24.201Z,9.48
2017-08-11T18:45:27.957Z,9.50
2017-08-11T18:48:31.761Z,12.13
2017-08-11T18:51:35.525Z,10.85
2017-08-11T18:54:39.330Z,12.18
2017-08-11T18:57:43.039Z,10.15
2017-08-11T19:00:46.863Z,11.88
2017-08-11T19:03:50.564Z,10.15
2017-08-11T19:06:54.906Z,12.75
2017-08-11T19:09:58.625Z,12.10
2017-08-11T19:13:09.187Z,12.07
2017-08-11T19:16:13.012Z,12.00
2017-08-11T19:19:16.743Z,10.85
2017-08-11T19:22:20.585Z,9.65
2017-08-11T19:25:24.300Z,11.35
2017-08-11T19:28:28.104Z,10.98
2017-08-11T19:31:31.881Z,10.15
2017-08-11T19:34:35.617Z,11.88
2017-08-11T19:37:39.385Z,11.60
2017-08-11T19:40:43.085Z,10.32
2017-08-11T19:43:46.868Z,11.75
2017-08-11T19:46:52.274Z,10.45
2017-08-11T19:49:56.203Z,9.77
2017-08-11T19:53:01.896Z,10.85
2017-08-11T19:56:05.718Z,11.73
2017-08-11T19:59:09.547Z,10.20
2017-08-11T20:02:13.145Z,10.85
2017-08-11T20:05:16.912Z,9.98
2017-08-11T20:08:20.687Z,11.50
2017-08-11T20:11:24.389Z,10.10
2017-08-11T20:14:28.309Z,7.82
2017-08-11T20:17:32.073Z,9.48
2017-08-11T20:20:35.739Z,10.73
2017-08-11T20:23:39.518Z,8.32
2017-08-11T20:26:43.249Z,8.27
2017-08-11T20:29:46.907Z,8.98
2017-08-11T20:32:50.732Z,8.25
2017-08-11T20:35:55.540Z,8.10
2017-08-11T20:38:59.360Z,7.72
2017-08-11T20:42:03.057Z,8.25
2017-08-11T20:45:06.762Z,7.55
2017-08-11T20:48:10.499Z,6.60
2017-08-11T20:51:14.935Z,7.20
2017-08-11T20:54:18.361Z,6.75
2017-08-11T20:57:22.165Z,7.10
2017-08-11T21:00:26.674Z,6.70
2017-08-11T21:03:30.524Z,8.40
2017-08-11T21:06:34.487Z,6.70
2017-08-11T21:09:38.191Z,7.05
2017-08-11T21:12:41.860Z,6.10
2017-08-11T21:15:46.870Z,8.10
2017-08-11T21:18:51.521Z,6.93
2017-08-11T21:21:56.360Z,6.65
2017-08-11T21:25:00.085Z,5.75
2017-08-11T21:28:03.856Z,6.30
2017-08-11T21:31:07.572Z,5.43
2017-08-11T21:34:11.311Z,6.53
2017-08-11T21:37:15.011Z,5.93
2017-08-11T21:40:18.729Z,5.93
2017-08-11T21:43:22.391Z,5.55
2017-08-11T21:46:27.133Z,5.78
2017-08-11T21:49:30.667Z,5.67
2017-08-11T21:52:34.451Z,5.45
2017-08-11T21:55:38.126Z,4.70
2017-08-11T21:58:41.954Z,5.35
2017-08-11T22:01:45.756Z,5.35
2017-08-11T22:04:49.563Z,4.82
2017-08-11T22:07:53.225Z,5.37
2017-08-11T22:10:57.224Z,5.87
2017-08-11T22:14:00.958Z,4.55
2017-08-11T22:17:04.774Z,5.30
2017-08-11T22:20:08.470Z,5.10
2017-08-11T22:23:12.355Z,5.50
2017-08-11T22:26:16.152Z,5.20
2017-08-11T22:29:19.828Z,4.80
2017-08-11T22:32:23.632Z,5.07
2017-08-11T22:35:27.319Z,5.45
2017-08-11T22:38:31.103Z,6.65
2017-08-11T22:41:34.807Z,5.30
2017-08-11T22:44:38.591Z,5.15
2017-08-11T22:47:42.271Z,4.90
2017-08-11T22:50:46.069Z,5.70
2017-08-11T22:53:49.755Z,5.53
2017-08-11T22:56:53.591Z,4.30
2017-08-11T22:59:57.316Z,4.60
2017-08-11T23:03:01.112Z,4.90
2017-08-11T23:06:04.852Z,5.85
2017-08-11T23:09:08.612Z,5.00
2017-08-11T23:12:12.376Z,4.87
2017-08-11T23:15:16.180Z,4.87
2017-08-11T23:18:19.958Z,4.68
2017-08-11T23:21:23.619Z,5.20
2017-08-11T23:24:27.397Z,4.60
2017-08-11T23:27:31.226Z,5.45
2017-08-11T23:30:35.032Z,4.65
2017-08-11T23:33:38.812Z,4.85
2017-08-11T23:36:42.462Z,4.50
2017-08-11T23:39:46.272Z,4.25
2017-08-11T23:42:50.083Z,4.45
2017-08-11T23:45:53.858Z,4.57
2017-08-11T23:48:57.675Z,4.05
2017-08-11T23:52:01.457Z,4.87
2017-08-11T23:55:05.161Z,4.55
2017-08-11T23:58:08.932Z,4.10
